createdAt,value
2022-09-25T00:01:51.524Z,99926.42
2022-09-25T00:04:21.335Z,99923.23
2022-09-25T00:06:51.160Z,99927.17
2022-09-25T00:09:22.574Z,99932.53
2022-09-25T00:11:52.350Z,99933.00
2022-09-25T00:14:22.158Z,99932.25
2022-09-25T00:16:52.367Z,99930.09
2022-09-25T00:19:43.317Z,99930.09
2022-09-25T00:22:12.828Z,99927.56
2022-09-25T00:24:48.878Z,99929.44
2022-09-25T00:27:19.527Z,99933.38
2022-09-25T00:29:49.714Z,99931.69
2022-09-25T00:32:19.267Z,99929.11
2022-09-25T00:34:49.065Z,99929.11
2022-09-25T00:37:18.753Z,99935.96
2022-09-25T00:39:48.589Z,99932.30
2022-09-25T00:42:23.036Z,99931.17
2022-09-25T00:45:01.036Z,99923.84
2022-09-25T00:47:57.966Z,99918.31
2022-09-25T00:50:51.938Z,99924.61
2022-09-25T00:53:24.793Z,99924.61
2022-09-25T00:55:57.032Z,99912.21
2022-09-25T00:58:29.936Z,99914.31
2022-09-25T01:01:00.982Z,99914.96
2022-09-25T01:03:30.909Z,99909.33
2022-09-25T01:06:01.980Z,99908.11
2022-09-25T01:08:34.761Z,99908.11
2022-09-25T01:11:04.735Z,99913.92
2022-09-25T01:13:34.941Z,99918.43
2022-09-25T01:16:17.339Z,99918.14
2022-09-25T01:19:23.474Z,99918.70
2022-09-25T01:22:07.802Z,99914.77
2022-09-25T01:25:06.770Z,99912.23
2022-09-25T01:27:42.300Z,99912.98
2022-09-25T01:30:21.511Z,99916.36
2022-09-25T01:33:00.031Z,99921.98
2022-09-25T01:35:41.483Z,99926.11
2022-09-25T01:38:30.494Z,99921.23
2022-09-25T01:41:12.069Z,99918.60
2022-09-25T01:44:10.369Z,99919.92
2022-09-25T01:46:43.279Z,99922.55
2022-09-25T01:49:16.108Z,99922.44
2022-09-25T01:51:48.945Z,99921.22
2022-09-25T01:54:27.236Z,99920.13
2022-09-25T01:57:02.744Z,99916.73
2022-09-25T01:59:40.993Z,99924.33
2022-09-25T02:02:16.928Z,99921.70
2022-09-25T02:04:49.814Z,99923.20
2022-09-25T02:07:22.363Z,99916.06
2022-09-25T02:09:55.207Z,99914.55
2022-09-25T02:12:34.476Z,99917.48
2022-09-25T02:15:23.584Z,99917.64
2022-09-25T02:18:19.414Z,99917.64
2022-09-25T02:20:52.855Z,99919.97
2022-09-25T02:23:40.266Z,99922.22
2022-09-25T02:26:15.648Z,99920.04
2022-09-25T02:28:45.462Z,99922.11
2022-09-25T02:31:17.571Z,99916.58
2022-09-25T02:33:47.890Z,99918.73
2022-09-25T02:36:24.104Z,99916.38
2022-09-25T02:38:56.417Z,99916.38
2022-09-25T02:41:35.882Z,99914.02
2022-09-25T02:44:18.283Z,99910.16
2022-09-25T02:47:13.476Z,99906.02
2022-09-25T02:49:52.190Z,99887.55
2022-09-25T02:52:25.012Z,99905.55
2022-09-25T02:55:06.963Z,99909.70
2022-09-25T02:57:40.087Z,99905.00
2022-09-25T03:00:10.866Z,99908.56
2022-09-25T03:02:44.781Z,99907.05
2022-09-25T03:05:15.903Z,99904.59
2022-09-25T03:08:03.560Z,99904.59
2022-09-25T03:10:38.083Z,99903.84
2022-09-25T03:13:19.838Z,99899.98
2022-09-25T03:15:53.300Z,99898.21
2022-09-25T03:18:22.847Z,99892.67
2022-09-25T03:20:53.261Z,99889.29
2022-09-25T03:23:24.259Z,99881.42
2022-09-25T03:25:57.419Z,99888.36
2022-09-25T03:28:29.182Z,99886.84
2022-09-25T03:31:04.886Z,99886.84
2022-09-25T03:33:40.361Z,99892.55
2022-09-25T03:36:13.153Z,99889.92
2022-09-25T03:38:46.020Z,99892.29
2022-09-25T03:41:19.264Z,99893.13
2022-09-25T03:43:52.232Z,99892.67
2022-09-25T03:46:25.912Z,99896.69
2022-09-25T03:48:57.105Z,99898.43
2022-09-25T03:51:28.545Z,99895.59
2022-09-25T03:53:58.472Z,99896.61
2022-09-25T03:56:30.107Z,99899.70
2022-09-25T03:59:00.085Z,99900.55
2022-09-25T04:01:30.145Z,99896.40
2022-09-25T04:04:01.472Z,99890.78
2022-09-25T04:06:31.250Z,99889.84
2022-09-25T04:09:01.050Z,99887.22
2022-09-25T04:11:31.954Z,99884.34
2022-09-25T04:14:02.108Z,99878.51
2022-09-25T04:16:31.959Z,99884.77
2022-09-25T04:19:01.963Z,99882.69
2022-09-25T04:21:31.879Z,99886.08
2022-09-25T04:24:19.834Z,99888.23
2022-09-25T04:26:51.575Z,99889.95
2022-09-25T04:29:22.003Z,99890.41
2022-09-25T04:31:53.700Z,99889.66
2022-09-25T04:34:23.279Z,99896.50
2022-09-25T04:36:53.100Z,99893.83
2022-09-25T04:39:22.761Z,99897.21
2022-09-25T04:41:52.565Z,99892.60
2022-09-25T04:44:22.435Z,99891.38
2022-09-25T04:46:52.486Z,99887.41
2022-09-25T04:49:21.981Z,99891.97
2022-09-25T04:51:51.872Z,99894.13
2022-09-25T04:54:21.374Z,99895.30
2022-09-25T04:56:51.161Z,99886.84
2022-09-25T04:59:21.246Z,99885.20
2022-09-25T05:01:51.214Z,99892.22
2022-09-25T05:04:20.832Z,99885.59
2022-09-25T05:06:51.503Z,99885.89
2022-09-25T05:09:21.120Z,99887.80
2022-09-25T05:11:50.906Z,99878.80
2022-09-25T05:14:20.986Z,99882.86
2022-09-25T05:16:51.423Z,99883.03
2022-09-25T05:19:20.927Z,99883.03
2022-09-25T05:21:50.728Z,99881.64
2022-09-25T05:24:20.620Z,99877.95
2022-09-25T05:26:50.411Z,99887.08
2022-09-25T05:29:20.128Z,99891.33
2022-09-25T05:31:50.154Z,99891.29
2022-09-25T05:34:19.744Z,99888.20
2022-09-25T05:36:49.548Z,99885.48
2022-09-25T05:39:19.257Z,99897.02
2022-09-25T05:41:49.045Z,99889.53
2022-09-25T05:44:18.615Z,99887.19
2022-09-25T05:46:48.484Z,99890.91
2022-09-25T05:49:18.358Z,99884.69
2022-09-25T05:51:48.538Z,99885.11
2022-09-25T05:54:18.034Z,99887.44
2022-09-25T05:56:47.874Z,99887.47
2022-09-25T05:59:17.725Z,99885.19
2022-09-25T06:01:48.605Z,99890.55
2022-09-25T06:04:19.334Z,99890.55
2022-09-25T06:06:48.917Z,99878.91
2022-09-25T06:09:18.625Z,99884.61
2022-09-25T06:11:48.437Z,99884.75
2022-09-25T06:14:19.873Z,99884.10
2022-09-25T06:16:51.382Z,99875.34
2022-09-25T06:19:21.099Z,99879.89
2022-09-25T06:21:55.794Z,99879.87
2022-09-25T06:24:25.783Z,99878.68
2022-09-25T06:26:55.640Z,99872.78
2022-09-25T06:29:25.551Z,99867.98
2022-09-25T06:31:55.351Z,99862.69
2022-09-25T06:34:25.414Z,99863.44
2022-09-25T06:36:55.899Z,99855.28
2022-09-25T06:39:25.770Z,99856.43
2022-09-25T06:41:55.659Z,99855.72
2022-09-25T06:44:26.250Z,99860.28
2022-09-25T06:46:56.061Z,99859.73
2022-09-25T06:49:25.861Z,99859.73
2022-09-25T06:51:56.042Z,99856.83
2022-09-25T06:54:25.933Z,99857.64
2022-09-25T06:56:55.933Z,99855.11
2022-09-25T06:59:25.948Z,99862.19
2022-09-25T07:01:57.950Z,99861.91
2022-09-25T07:04:27.795Z,99859.84
2022-09-25T07:06:59.084Z,99859.70
2022-09-25T07:09:28.894Z,99859.91
2022-09-25T07:11:58.709Z,99850.30
2022-09-25T07:14:28.655Z,99850.30
2022-09-25T07:16:58.478Z,99859.97
2022-09-25T07:19:28.272Z,99848.02
2022-09-25T07:21:58.093Z,99853.69
2022-09-25T07:24:27.886Z,99851.48
2022-09-25T07:26:58.001Z,99845.52
2022-09-25T07:29:27.849Z,99846.62
2022-09-25T07:31:57.645Z,99848.63
2022-09-25T07:34:27.470Z,99848.63
2022-09-25T07:36:57.279Z,99845.01
2022-09-25T07:39:27.103Z,99848.97
2022-09-25T07:41:56.912Z,99845.33
2022-09-25T07:44:29.454Z,99857.29
2022-09-25T07:46:58.285Z,99857.29
2022-09-25T07:49:28.957Z,99862.55
2022-09-25T07:51:59.648Z,99866.14
2022-09-25T07:54:29.936Z,99858.33
2022-09-25T07:56:59.765Z,99858.53
2022-09-25T07:59:29.578Z,99860.59
2022-09-25T08:01:59.572Z,99861.08
2022-09-25T08:04:29.435Z,99852.48
2022-09-25T08:07:02.311Z,99853.05
2022-09-25T08:09:32.248Z,99842.04
2022-09-25T08:12:03.833Z,99844.81
2022-09-25T08:14:34.224Z,99822.77
2022-09-25T08:17:03.875Z,99822.77
2022-09-25T08:19:33.676Z,99832.01
2022-09-25T08:22:03.506Z,99832.01
2022-09-25T08:24:33.304Z,99831.33
2022-09-25T08:27:03.063Z,99833.48
2022-09-25T08:29:33.732Z,99822.78
2022-09-25T08:32:03.556Z,99826.67
2022-09-25T08:34:42.181Z,99819.55
2022-09-25T08:37:08.321Z,99817.55
2022-09-25T08:39:38.252Z,99812.49
2022-09-25T08:42:09.626Z,99808.91
2022-09-25T08:44:57.221Z,99805.98
2022-09-25T08:47:38.722Z,99811.83
2022-09-25T08:50:11.897Z,99812.89
2022-09-25T08:52:44.724Z,99807.55
2022-09-25T08:55:30.951Z,99803.48
2022-09-25T08:58:02.424Z,99805.20
2022-09-25T09:00:32.399Z,99796.80
2022-09-25T09:03:02.828Z,99794.17
2022-09-25T09:05:35.786Z,99789.74
2022-09-25T09:08:12.351Z,99791.23
2022-09-25T09:10:48.395Z,99787.10
2022-09-25T09:13:36.269Z,99787.10
2022-09-25T09:16:10.227Z,99780.86
2022-09-25T09:18:41.993Z,99780.68
2022-09-25T09:21:35.699Z,99782.55
2022-09-25T09:24:17.927Z,99769.20
2022-09-25T09:26:59.574Z,99772.64
2022-09-25T09:29:47.727Z,99770.91
2022-09-25T09:32:44.476Z,99744.54
2022-09-25T09:35:36.565Z,99744.54
2022-09-25T09:38:42.939Z,99768.92
2022-09-25T09:41:21.929Z,99774.77
2022-09-25T09:44:11.655Z,99774.53
2022-09-25T09:47:02.915Z,99763.27
2022-09-25T09:49:45.699Z,99760.80
2022-09-25T09:52:18.261Z,99757.14
2022-09-25T09:54:51.088Z,99757.60
2022-09-25T09:57:31.202Z,99752.09
2022-09-25T10:00:06.894Z,99748.58
2022-09-25T10:02:57.056Z,99745.50
2022-09-25T10:05:33.017Z,99753.80
2022-09-25T10:08:03.113Z,99756.01
2022-09-25T10:10:38.227Z,99754.41
2022-09-25T10:13:16.597Z,99749.46
2022-09-25T10:16:05.112Z,99743.70
2022-09-25T10:18:43.314Z,99739.59
2022-09-25T10:21:21.305Z,99744.75
2022-09-25T10:23:53.510Z,99737.87
2022-09-25T10:26:35.863Z,99735.34
2022-09-25T10:29:24.084Z,99735.95
2022-09-25T10:32:03.649Z,99728.69
2022-09-25T10:34:34.123Z,99720.75
2022-09-25T10:37:07.835Z,99716.77
2022-09-25T10:39:45.213Z,99717.52
2022-09-25T10:42:41.011Z,99720.64
2022-09-25T10:45:31.124Z,99718.91
2022-09-25T10:48:19.007Z,99711.08
2022-09-25T10:50:52.165Z,99711.95
2022-09-25T10:53:30.951Z,99711.77
2022-09-25T10:56:05.019Z,99708.17
2022-09-25T10:58:37.961Z,99698.83
2022-09-25T11:01:12.233Z,99709.33
2022-09-25T11:03:50.349Z,99706.56
2022-09-25T11:06:27.950Z,99702.98
2022-09-25T11:09:08.078Z,99698.41
2022-09-25T11:11:39.978Z,99687.91
2022-09-25T11:14:33.934Z,99689.47
2022-09-25T11:17:06.783Z,99689.63
2022-09-25T11:19:38.848Z,99682.33
2022-09-25T11:22:25.291Z,99684.74
2022-09-25T11:25:01.250Z,99683.88
2022-09-25T11:27:43.133Z,99694.38
2022-09-25T11:30:21.568Z,99689.66
2022-09-25T11:33:18.265Z,99693.27
2022-09-25T11:36:02.923Z,99687.76
2022-09-25T11:39:05.796Z,99689.55
2022-09-25T11:41:47.697Z,99685.11
2022-09-25T11:44:33.998Z,99683.69
2022-09-25T11:47:33.132Z,99686.09
2022-09-25T11:50:04.049Z,99675.70
2022-09-25T11:52:42.571Z,99681.77
2022-09-25T11:55:27.253Z,99679.53
2022-09-25T11:58:02.673Z,99680.92
2022-09-25T12:00:56.786Z,99679.01
2022-09-25T12:03:35.624Z,99675.61
2022-09-25T12:06:28.480Z,99663.61
2022-09-25T12:09:15.048Z,99667.97
2022-09-25T12:11:53.692Z,99664.32
2022-09-25T12:14:43.209Z,99667.70
2022-09-25T12:17:19.082Z,99672.03
2022-09-25T12:19:58.068Z,99660.41
2022-09-25T12:22:39.107Z,99660.92
2022-09-25T12:25:35.669Z,99656.31
2022-09-25T12:28:25.743Z,99647.66
2022-09-25T12:31:30.390Z,99644.70
2022-09-25T12:34:27.440Z,99637.55
2022-09-25T12:37:08.549Z,99632.91
2022-09-25T12:39:43.942Z,99631.21
2022-09-25T12:42:19.168Z,99631.21
2022-09-25T12:44:53.121Z,99634.28
2022-09-25T12:47:34.435Z,99630.75
2022-09-25T12:50:19.241Z,99635.87
2022-09-25T12:52:56.149Z,99636.63
2022-09-25T12:55:31.928Z,99633.17
2022-09-25T12:58:07.398Z,99640.02
2022-09-25T13:00:40.240Z,99635.16
2022-09-25T13:03:29.605Z,99635.09
2022-09-25T13:06:14.545Z,99629.66
2022-09-25T13:09:05.568Z,99627.77
2022-09-25T13:11:47.647Z,99632.72
2022-09-25T13:14:21.266Z,99626.63
2022-09-25T13:16:51.041Z,99623.41
2022-09-25T13:19:27.213Z,99618.94
2022-09-25T13:22:10.126Z,99618.55
2022-09-25T13:24:52.472Z,99617.51
2022-09-25T13:27:24.753Z,99613.37
2022-09-25T13:30:00.940Z,99612.91
2022-09-25T13:32:35.007Z,99615.83
2022-09-25T13:35:07.791Z,99617.80
2022-09-25T13:37:39.521Z,99613.68
2022-09-25T13:40:35.841Z,99605.33
2022-09-25T13:43:24.867Z,99603.55
2022-09-25T13:46:09.672Z,99600.86
2022-09-25T13:48:40.597Z,99595.98
2022-09-25T13:51:26.081Z,99596.48
2022-09-25T13:54:07.848Z,99595.22
2022-09-25T13:56:46.662Z,99595.91
2022-09-25T13:59:20.551Z,99598.23
2022-09-25T14:02:00.290Z,99593.48
2022-09-25T14:04:40.209Z,99592.72
2022-09-25T14:07:15.981Z,99594.91
2022-09-25T14:09:48.942Z,99586.22
2022-09-25T14:12:40.994Z,99583.35
2022-09-25T14:15:22.591Z,99590.26
2022-09-25T14:17:53.004Z,99584.11
2022-09-25T14:20:31.919Z,99588.06
2022-09-25T14:23:07.444Z,99582.95
2022-09-25T14:25:41.092Z,99579.59
2022-09-25T14:28:25.543Z,99580.60
2022-09-25T14:31:08.240Z,99578.11
2022-09-25T14:34:02.572Z,99573.34
2022-09-25T14:36:48.310Z,99576.36
2022-09-25T14:39:40.197Z,99580.98
2022-09-25T14:42:19.008Z,99575.93
2022-09-25T14:44:53.270Z,99567.41
2022-09-25T14:47:23.765Z,99567.40
2022-09-25T14:49:55.121Z,99569.92
2022-09-25T14:52:27.832Z,99567.92
2022-09-25T14:55:00.315Z,99567.39
2022-09-25T14:57:33.497Z,99564.16
2022-09-25T15:00:06.632Z,99566.98
2022-09-25T15:02:42.558Z,99555.32
2022-09-25T15:05:29.950Z,99530.11
2022-09-25T15:08:02.470Z,99530.11
2022-09-25T15:10:38.593Z,99549.49
2022-09-25T15:13:17.059Z,99553.48
2022-09-25T15:16:07.726Z,99546.98
2022-09-25T15:18:42.789Z,99546.71
2022-09-25T15:21:24.698Z,99547.00
2022-09-25T15:23:57.655Z,99531.23
2022-09-25T15:26:29.044Z,99531.23
2022-09-25T15:28:59.144Z,99542.44
2022-09-25T15:31:38.274Z,99538.34
2022-09-25T15:34:14.239Z,99538.34
2022-09-25T15:36:44.802Z,99537.38
2022-09-25T15:39:17.958Z,99536.70
2022-09-25T15:41:47.893Z,99520.73
2022-09-25T15:44:26.287Z,99520.73
2022-09-25T15:46:59.114Z,99534.11
2022-09-25T15:49:34.489Z,99534.38
2022-09-25T15:52:07.088Z,99529.48
2022-09-25T15:54:46.154Z,99530.31
2022-09-25T15:57:18.517Z,99533.49
2022-09-25T16:00:07.524Z,99535.33
2022-09-25T16:02:58.367Z,99535.52
2022-09-25T16:05:37.143Z,99534.33
2022-09-25T16:08:32.294Z,99507.05
2022-09-25T16:11:16.882Z,99507.05
2022-09-25T16:13:51.807Z,99525.92
2022-09-25T16:16:29.704Z,99523.28
2022-09-25T16:19:02.317Z,99526.47
2022-09-25T16:21:34.845Z,99526.70
2022-09-25T16:24:07.725Z,99522.86
2022-09-25T16:26:42.864Z,99522.25
2022-09-25T16:29:25.293Z,99516.08
2022-09-25T16:32:10.280Z,99517.95
2022-09-25T16:34:52.125Z,99523.30
2022-09-25T16:37:24.482Z,99520.16
2022-09-25T16:40:09.666Z,99517.82
2022-09-25T16:42:40.518Z,99524.19
2022-09-25T16:45:14.979Z,99528.34
2022-09-25T16:47:49.460Z,99526.66
2022-09-25T16:50:22.641Z,99529.19
2022-09-25T16:52:52.592Z,99522.47
2022-09-25T16:55:24.977Z,99525.45
2022-09-25T16:57:56.078Z,99530.94
2022-09-25T17:00:29.982Z,99531.62
2022-09-25T17:03:01.747Z,99531.93
2022-09-25T17:05:35.473Z,99529.59
2022-09-25T17:08:15.195Z,99529.88
2022-09-25T17:10:46.614Z,99530.83
2022-09-25T17:13:19.115Z,99527.84
2022-09-25T17:15:49.404Z,99522.20
2022-09-25T17:18:21.145Z,99525.16
2022-09-25T17:20:56.193Z,99521.48
2022-09-25T17:23:27.836Z,99525.61
2022-09-25T17:26:09.843Z,99520.94
2022-09-25T17:28:39.653Z,99523.77
2022-09-25T17:31:12.373Z,99524.74
2022-09-25T17:33:42.554Z,99520.02
2022-09-25T17:36:14.304Z,99520.16
2022-09-25T17:38:44.949Z,99523.70
2022-09-25T17:41:26.092Z,99523.70
2022-09-25T17:43:55.925Z,99520.82
2022-09-25T17:46:27.604Z,99520.80
2022-09-25T17:48:57.555Z,99522.95
2022-09-25T17:51:29.685Z,99520.30
2022-09-25T17:54:02.495Z,99526.27
2022-09-25T17:56:35.648Z,99508.30
2022-09-25T17:59:07.694Z,99508.30
2022-09-25T18:01:39.654Z,99522.30
2022-09-25T18:04:26.608Z,99524.09
2022-09-25T18:06:57.971Z,99524.09
2022-09-25T18:09:27.505Z,99525.11
2022-09-25T18:11:57.562Z,99524.73
2022-09-25T18:14:27.744Z,99500.59
2022-09-25T18:16:59.533Z,99527.51
2022-09-25T18:19:47.131Z,99518.20
2022-09-25T18:22:21.361Z,99522.38
2022-09-25T18:24:54.234Z,99522.83
2022-09-25T18:27:27.277Z,99520.63
2022-09-25T18:29:58.212Z,99524.69
2022-09-25T18:32:27.973Z,99531.03
2022-09-25T18:34:57.941Z,99533.49
2022-09-25T18:37:27.827Z,99530.85
2022-09-25T18:39:58.671Z,99533.01
2022-09-25T18:42:29.479Z,99535.92
2022-09-25T18:45:00.300Z,99540.61
2022-09-25T18:47:30.242Z,99538.45
2022-09-25T18:50:00.314Z,99529.14
2022-09-25T18:52:31.717Z,99539.86
2022-09-25T18:55:01.332Z,99534.44
2022-09-25T18:57:31.129Z,99536.76
2022-09-25T19:00:01.699Z,99533.22
2022-09-25T19:02:34.124Z,99532.38
2022-09-25T19:05:04.280Z,99528.11
2022-09-25T19:07:37.055Z,99525.28
2022-09-25T19:10:13.791Z,99525.28
2022-09-25T19:12:45.896Z,99525.62
2022-09-25T19:15:16.640Z,99526.14
2022-09-25T19:18:00.818Z,99533.76
2022-09-25T19:20:31.312Z,99529.58
2022-09-25T19:23:02.481Z,99529.58
2022-09-25T19:25:32.273Z,99527.13
2022-09-25T19:28:03.981Z,99531.84
2022-09-25T19:30:33.782Z,99527.42
2022-09-25T19:33:05.185Z,99529.86
2022-09-25T19:35:35.002Z,99528.68
2022-09-25T19:38:11.783Z,99535.77
2022-09-25T19:40:39.861Z,99533.91
2022-09-25T19:43:09.648Z,99537.29
2022-09-25T19:45:39.468Z,99539.52
2022-09-25T19:48:09.299Z,99532.63
2022-09-25T19:50:43.066Z,99538.83
2022-09-25T19:53:13.441Z,99530.27
2022-09-25T19:55:43.573Z,99527.81
2022-09-25T19:58:13.245Z,99518.16
2022-09-25T20:00:46.380Z,99516.88
2022-09-25T20:03:16.619Z,99518.21
2022-09-25T20:05:48.131Z,99512.75
2022-09-25T20:08:17.815Z,99512.20
2022-09-25T20:10:47.894Z,99506.89
2022-09-25T20:13:18.050Z,99504.04
2022-09-25T20:15:48.186Z,99508.44
2022-09-25T20:18:17.891Z,99509.65
2022-09-25T20:20:47.707Z,99504.70
2022-09-25T20:23:17.266Z,99505.94
2022-09-25T20:25:47.069Z,99499.44
2022-09-25T20:28:16.927Z,99495.75
2022-09-25T20:30:47.116Z,99490.58
2022-09-25T20:33:16.874Z,99489.89
2022-09-25T20:35:46.700Z,99487.05
2022-09-25T20:38:16.952Z,99477.22
2022-09-25T20:40:46.760Z,99478.80
2022-09-25T20:43:16.637Z,99479.78
2022-09-25T20:45:48.009Z,99479.14
2022-09-25T20:48:17.912Z,99476.48
2022-09-25T20:50:51.950Z,99474.86
2022-09-25T20:53:21.937Z,99472.04
2022-09-25T20:55:51.726Z,99472.05
2022-09-25T20:58:21.319Z,99473.53
2022-09-25T21:00:51.398Z,99479.97
2022-09-25T21:03:20.904Z,99474.11
2022-09-25T21:05:50.728Z,99471.02
2022-09-25T21:08:20.343Z,99458.30
2022-09-25T21:10:52.000Z,99460.45
2022-09-25T21:13:21.730Z,99465.48
2022-09-25T21:15:52.033Z,99459.98
2022-09-25T21:18:22.504Z,99468.05
2022-09-25T21:20:51.993Z,99470.17
2022-09-25T21:23:21.563Z,99471.02
2022-09-25T21:25:51.447Z,99471.02
2022-09-25T21:28:22.152Z,99468.66
2022-09-25T21:30:51.979Z,99471.94
2022-09-25T21:33:21.700Z,99471.59
2022-09-25T21:35:51.679Z,99467.13
2022-09-25T21:38:21.557Z,99467.13
2022-09-25T21:40:51.525Z,99469.03
2022-09-25T21:43:21.630Z,99467.67
2022-09-25T21:45:51.498Z,99466.37
2022-09-25T21:48:21.031Z,99464.98
2022-09-25T21:50:58.932Z,99464.08
2022-09-25T21:53:29.089Z,99463.10
2022-09-25T21:56:10.540Z,99455.68
2022-09-25T21:58:39.750Z,99451.56
2022-09-25T22:01:12.925Z,99448.70
2022-09-25T22:03:45.328Z,99444.31
2022-09-25T22:06:18.495Z,99439.92
2022-09-25T22:08:51.629Z,99442.72
2022-09-25T22:11:22.572Z,99442.09
2022-09-25T22:13:53.000Z,99440.84
2022-09-25T22:16:25.941Z,99436.41
2022-09-25T22:19:01.419Z,99430.00
2022-09-25T22:21:33.175Z,99430.41
2022-09-25T22:24:03.506Z,99436.48
2022-09-25T22:26:34.867Z,99439.00
2022-09-25T22:29:05.733Z,99429.68
2022-09-25T22:31:38.530Z,99427.52
2022-09-25T22:34:11.158Z,99431.70
2022-09-25T22:36:41.256Z,99432.33
2022-09-25T22:39:13.944Z,99427.36
2022-09-25T22:41:43.938Z,99431.29
2022-09-25T22:44:13.495Z,99432.67
2022-09-25T22:46:44.267Z,99429.68
2022-09-25T22:49:14.514Z,99432.54
2022-09-25T22:51:45.182Z,99430.23
2022-09-25T22:54:15.436Z,99430.23
2022-09-25T22:56:45.691Z,99427.99
2022-09-25T22:59:19.959Z,99426.86
2022-09-25T23:01:52.581Z,99426.91
2022-09-25T23:04:24.779Z,99424.48
2022-09-25T23:06:54.639Z,99421.67
2022-09-25T23:09:26.235Z,99421.64
2022-09-25T23:11:57.385Z,99415.94
2022-09-25T23:14:29.954Z,99409.94
2022-09-25T23:17:00.838Z,99412.63
2022-09-25T23:19:30.624Z,99411.72
2022-09-25T23:22:00.881Z,99414.09
2022-09-25T23:24:31.451Z,99410.16
2022-09-25T23:27:00.966Z,99408.39
2022-09-25T23:29:30.996Z,99408.59
2022-09-25T23:32:02.575Z,99410.66
2022-09-25T23:34:32.363Z,99410.22
2022-09-25T23:37:02.223Z,99400.16
2022-09-25T23:39:32.356Z,99409.94
2022-09-25T23:42:02.174Z,99408.13
2022-09-25T23:44:32.076Z,99407.16
2022-09-25T23:47:01.995Z,99391.47
2022-09-25T23:49:31.786Z,99401.13
2022-09-25T23:52:01.805Z,99394.36
2022-09-25T23:54:31.946Z,99396.43
2022-09-25T23:57:01.911Z,99391.56
2022-09-25T23:59:31.715Z,99389.72
